createdAt,value
2022-11-26T00:01:16.637Z,6.80
2022-11-26T00:03:43.941Z,7.60
2022-11-26T00:06:42.867Z,7.47
2022-11-26T00:09:19.115Z,7.38
2022-11-26T00:11:45.946Z,7.65
2022-11-26T00:14:17.193Z,7.50
2022-11-26T00:16:44.709Z,7.40
2022-11-26T00:19:11.440Z,7.90
2022-11-26T00:21:40.211Z,8.15
2022-11-26T00:24:24.014Z,9.18
2022-11-26T00:26:50.657Z,8.25
2022-11-26T00:29:17.283Z,8.00
2022-11-26T00:31:43.938Z,8.25
2022-11-26T00:34:10.610Z,7.95
2022-11-26T00:36:37.318Z,7.70
2022-11-26T00:39:12.570Z,8.65
2022-11-26T00:41:39.938Z,8.40
2022-11-26T00:44:22.232Z,7.00
2022-11-26T00:46:51.208Z,8.77
2022-11-26T00:49:18.270Z,7.35
2022-11-26T00:51:46.533Z,7.55
2022-11-26T00:54:17.016Z,8.93
2022-11-26T00:56:44.087Z,7.97
2022-11-26T00:59:14.585Z,8.55
2022-11-26T01:01:41.521Z,8.40
2022-11-26T01:04:08.530Z,7.75
2022-11-26T01:06:39.057Z,8.05
2022-11-26T01:09:07.418Z,7.75
2022-11-26T01:11:34.138Z,8.00
2022-11-26T01:14:00.938Z,7.90
2022-11-26T01:16:30.926Z,9.13
2022-11-26T01:18:59.751Z,9.05
2022-11-26T01:21:28.950Z,8.18
2022-11-26T01:23:56.485Z,7.63
2022-11-26T01:26:28.564Z,7.85
2022-11-26T01:28:55.849Z,7.97
2022-11-26T01:31:28.798Z,8.85
2022-11-26T01:33:56.013Z,8.32
2022-11-26T01:36:25.512Z,8.40
2022-11-26T01:38:54.756Z,8.00
2022-11-26T01:41:41.184Z,8.20
2022-11-26T01:44:14.481Z,8.00
2022-11-26T01:46:41.510Z,8.35
2022-11-26T01:49:38.365Z,8.15
2022-11-26T01:52:24.927Z,7.65
2022-11-26T01:54:53.205Z,7.40
2022-11-26T01:57:25.209Z,7.93
2022-11-26T01:59:54.979Z,8.13
2022-11-26T02:02:25.077Z,7.45
2022-11-26T02:05:01.089Z,8.25
2022-11-26T02:07:27.807Z,8.10
2022-11-26T02:09:54.918Z,8.25
2022-11-26T02:12:21.682Z,7.72
2022-11-26T02:14:48.768Z,7.97
2022-11-26T02:17:18.541Z,8.10
2022-11-26T02:20:12.604Z,8.45
2022-11-26T02:23:24.580Z,8.23
2022-11-26T02:26:12.742Z,8.00
2022-11-26T02:28:52.194Z,7.93
2022-11-26T02:31:57.056Z,7.72
2022-11-26T02:35:00.109Z,7.28
2022-11-26T02:37:39.548Z,7.90
2022-11-26T02:40:08.767Z,7.60
2022-11-26T02:42:36.621Z,7.50
2022-11-26T02:45:07.918Z,7.70
2022-11-26T02:47:37.607Z,7.40
2022-11-26T02:50:10.134Z,9.35
2022-11-26T02:52:39.890Z,7.97
2022-11-26T02:55:09.132Z,8.48
2022-11-26T02:57:45.025Z,8.90
2022-11-26T03:00:12.418Z,8.57
2022-11-26T03:03:08.575Z,8.98
2022-11-26T03:05:37.679Z,8.63
2022-11-26T03:08:06.745Z,8.10
2022-11-26T03:10:34.244Z,9.02
2022-11-26T03:13:00.964Z,8.30
2022-11-26T03:15:27.638Z,7.95
2022-11-26T03:17:54.314Z,7.80
2022-11-26T03:20:20.957Z,8.40
2022-11-26T03:22:47.651Z,7.95
2022-11-26T03:25:14.614Z,7.50
2022-11-26T03:27:41.269Z,8.23
2022-11-26T03:30:08.521Z,8.20
2022-11-26T03:32:35.529Z,7.80
2022-11-26T03:35:02.600Z,7.65
2022-11-26T03:37:30.116Z,7.55
2022-11-26T03:39:56.760Z,8.75
2022-11-26T03:42:23.662Z,8.40
2022-11-26T03:44:50.302Z,8.02
2022-11-26T03:47:17.116Z,8.10
2022-11-26T03:49:43.733Z,8.05
2022-11-26T03:52:10.387Z,8.50
2022-11-26T03:54:37.408Z,8.65
2022-11-26T03:57:04.457Z,8.02
2022-11-26T03:59:31.280Z,8.40
2022-11-26T04:01:57.999Z,8.80
2022-11-26T04:04:24.720Z,8.25
2022-11-26T04:06:51.350Z,8.52
2022-11-26T04:09:18.033Z,8.93
2022-11-26T04:11:44.739Z,7.80
2022-11-26T04:14:11.390Z,8.65
2022-11-26T04:16:38.055Z,7.63
2022-11-26T04:19:04.721Z,8.43
2022-11-26T04:21:31.387Z,8.38
2022-11-26T04:23:58.039Z,8.85
2022-11-26T04:26:24.798Z,8.75
2022-11-26T04:28:51.500Z,8.77
2022-11-26T04:31:18.420Z,8.88
2022-11-26T04:33:45.091Z,8.18
2022-11-26T04:36:11.916Z,8.35
2022-11-26T04:38:38.783Z,7.80
2022-11-26T04:41:05.723Z,8.35
2022-11-26T04:43:32.410Z,8.50
2022-11-26T04:45:59.068Z,8.82
2022-11-26T04:48:25.724Z,8.70
2022-11-26T04:50:52.371Z,8.73
2022-11-26T04:53:21.817Z,7.55
2022-11-26T04:55:49.669Z,7.95
2022-11-26T04:58:17.381Z,7.60
2022-11-26T05:00:46.003Z,8.05
2022-11-26T05:03:17.011Z,7.60
2022-11-26T05:05:43.687Z,8.00
2022-11-26T05:08:10.455Z,8.50
2022-11-26T05:10:37.090Z,9.80
2022-11-26T05:13:03.878Z,8.45
2022-11-26T05:15:30.544Z,8.75
2022-11-26T05:17:57.182Z,8.05
2022-11-26T05:20:24.156Z,8.07
2022-11-26T05:22:50.870Z,8.65
2022-11-26T05:25:17.646Z,8.77
2022-11-26T05:27:44.297Z,8.18
2022-11-26T05:30:11.539Z,8.63
2022-11-26T05:32:38.194Z,8.13
2022-11-26T05:35:05.398Z,12.70
2022-11-26T05:37:32.089Z,9.68
2022-11-26T05:39:58.744Z,9.25
2022-11-26T05:42:25.374Z,8.65
2022-11-26T05:44:52.070Z,8.45
2022-11-26T05:47:18.852Z,8.52
2022-11-26T05:49:45.499Z,9.25
2022-11-26T05:52:12.180Z,8.93
2022-11-26T05:54:39.230Z,10.60
2022-11-26T05:57:06.095Z,9.25
2022-11-26T05:59:32.741Z,8.52
2022-11-26T06:01:59.527Z,8.25
2022-11-26T06:04:26.259Z,8.80
2022-11-26T06:06:53.101Z,8.48
2022-11-26T06:09:19.804Z,8.40
2022-11-26T06:11:46.428Z,7.93
2022-11-26T06:14:13.082Z,10.70
2022-11-26T06:16:39.789Z,10.25
2022-11-26T06:19:06.458Z,9.02
2022-11-26T06:21:33.540Z,9.38
2022-11-26T06:24:00.182Z,9.85
2022-11-26T06:26:26.889Z,10.02
2022-11-26T06:28:53.552Z,9.80
2022-11-26T06:31:20.272Z,9.77
2022-11-26T06:33:47.049Z,9.40
2022-11-26T06:36:14.097Z,9.05
2022-11-26T06:38:40.729Z,8.70
2022-11-26T06:41:08.756Z,9.57
2022-11-26T06:43:35.443Z,9.68
2022-11-26T06:46:04.218Z,10.00
2022-11-26T06:48:31.157Z,10.85
2022-11-26T06:51:02.661Z,9.50
2022-11-26T06:53:29.288Z,8.60
2022-11-26T06:55:59.978Z,8.95
2022-11-26T06:58:26.750Z,8.38
2022-11-26T07:00:53.412Z,8.88
2022-11-26T07:03:24.253Z,8.18
2022-11-26T07:05:52.237Z,8.35
2022-11-26T07:08:18.863Z,8.63
2022-11-26T07:10:49.049Z,8.85
2022-11-26T07:13:15.996Z,8.60
2022-11-26T07:15:42.686Z,7.40
2022-11-26T07:18:09.364Z,8.70
2022-11-26T07:20:36.783Z,8.30
2022-11-26T07:23:04.586Z,8.27
2022-11-26T07:25:31.499Z,9.65
2022-11-26T07:27:58.862Z,8.60
2022-11-26T07:30:25.565Z,7.88
2022-11-26T07:32:52.188Z,8.55
2022-11-26T07:35:18.906Z,7.95
2022-11-26T07:37:45.660Z,8.20
2022-11-26T07:40:12.814Z,8.90
2022-11-26T07:42:39.424Z,8.30
2022-11-26T07:45:06.564Z,8.52
2022-11-26T07:47:33.697Z,9.05
2022-11-26T07:50:00.495Z,10.20
2022-11-26T07:52:27.154Z,8.95
2022-11-26T07:54:53.829Z,8.63
2022-11-26T07:57:22.375Z,9.07
2022-11-26T07:59:49.179Z,8.65
2022-11-26T08:02:17.443Z,9.25
2022-11-26T08:04:44.164Z,9.32
2022-11-26T08:07:11.968Z,8.50
2022-11-26T08:09:40.202Z,8.18
2022-11-26T08:12:07.119Z,8.52
2022-11-26T08:14:33.813Z,9.30
2022-11-26T08:17:00.496Z,9.25
2022-11-26T08:19:27.265Z,8.18
2022-11-26T08:21:53.900Z,8.52
2022-11-26T08:24:20.728Z,9.10
2022-11-26T08:26:47.370Z,8.40
2022-11-26T08:29:14.413Z,7.57
2022-11-26T08:31:45.647Z,7.80
2022-11-26T08:34:15.071Z,7.60
2022-11-26T08:36:42.076Z,7.82
2022-11-26T08:39:12.014Z,8.07
2022-11-26T08:41:38.698Z,7.20
2022-11-26T08:44:06.945Z,7.47
2022-11-26T08:46:35.423Z,8.50
2022-11-26T08:49:02.183Z,8.48
2022-11-26T08:51:28.848Z,8.10
2022-11-26T08:53:55.491Z,8.07
2022-11-26T08:56:22.299Z,8.80
2022-11-26T08:58:49.327Z,8.05
2022-11-26T09:01:20.281Z,8.32
2022-11-26T09:03:56.133Z,7.82
2022-11-26T09:06:23.981Z,7.30
2022-11-26T09:09:09.695Z,7.13
2022-11-26T09:11:39.300Z,6.65
2022-11-26T09:14:06.465Z,6.20
2022-11-26T09:16:33.738Z,6.60
2022-11-26T09:19:01.710Z,7.28
2022-11-26T09:21:28.995Z,6.30
2022-11-26T09:23:56.024Z,5.72
2022-11-26T09:26:22.768Z,5.95
2022-11-26T09:28:49.592Z,6.10
2022-11-26T09:31:17.221Z,6.05
2022-11-26T09:33:44.580Z,6.05
2022-11-26T09:36:14.593Z,5.63
2022-11-26T09:38:41.875Z,5.90
2022-11-26T09:41:26.846Z,5.65
2022-11-26T09:43:59.640Z,6.15
2022-11-26T09:46:50.993Z,5.53
2022-11-26T09:49:28.475Z,5.00
2022-11-26T09:51:58.912Z,5.00
2022-11-26T09:54:28.251Z,5.65
2022-11-26T09:57:02.332Z,4.70
2022-11-26T09:59:30.209Z,5.20
2022-11-26T10:01:56.939Z,6.00
2022-11-26T10:04:31.139Z,5.10
2022-11-26T10:07:11.127Z,5.25
2022-11-26T10:09:56.733Z,4.90
2022-11-26T10:12:30.935Z,6.18
2022-11-26T10:15:27.016Z,5.20
2022-11-26T10:18:24.230Z,5.65
2022-11-26T10:21:08.975Z,5.75
2022-11-26T10:23:50.600Z,6.50
2022-11-26T10:26:20.069Z,6.13
2022-11-26T10:28:50.040Z,5.43
2022-11-26T10:31:27.047Z,6.72
2022-11-26T10:34:03.297Z,6.25
2022-11-26T10:36:36.418Z,6.00
2022-11-26T10:39:03.462Z,6.30
2022-11-26T10:41:33.723Z,6.43
2022-11-26T10:44:28.387Z,6.05
2022-11-26T10:46:55.816Z,6.78
2022-11-26T10:49:30.358Z,5.20
2022-11-26T10:52:01.351Z,5.53
2022-11-26T10:54:39.008Z,5.00
2022-11-26T10:57:08.715Z,4.50
2022-11-26T10:59:44.517Z,4.78
2022-11-26T11:02:20.124Z,4.80
2022-11-26T11:04:51.636Z,4.50
2022-11-26T11:07:41.480Z,5.03
2022-11-26T11:10:11.845Z,4.95
2022-11-26T11:12:40.683Z,5.00
2022-11-26T11:15:31.562Z,4.57
2022-11-26T11:17:58.233Z,4.90
2022-11-26T11:20:34.091Z,5.13
2022-11-26T11:23:05.316Z,5.10
2022-11-26T11:25:34.705Z,5.60
2022-11-26T11:28:13.138Z,5.22
2022-11-26T11:30:41.488Z,5.97
2022-11-26T11:33:11.101Z,6.05
2022-11-26T11:35:37.855Z,5.60
2022-11-26T11:38:04.660Z,5.78
2022-11-26T11:40:40.749Z,6.38
2022-11-26T11:43:13.661Z,6.45
2022-11-26T11:45:52.914Z,6.70
2022-11-26T11:48:37.644Z,6.10
2022-11-26T11:51:25.337Z,6.45
2022-11-26T11:54:12.679Z,7.30
2022-11-26T11:56:46.198Z,7.05
2022-11-26T12:00:08.146Z,6.95
2022-11-26T12:02:59.700Z,6.55
2022-11-26T12:05:44.831Z,6.80
2022-11-26T12:08:36.191Z,7.05
2022-11-26T12:11:39.820Z,6.93
2022-11-26T12:14:32.645Z,6.95
2022-11-26T12:17:29.015Z,7.68
2022-11-26T12:20:08.923Z,6.80
2022-11-26T12:22:45.176Z,7.30
2022-11-26T12:25:23.559Z,6.82
2022-11-26T12:28:01.664Z,7.05
2022-11-26T12:30:46.406Z,7.40
2022-11-26T12:33:16.862Z,6.90
2022-11-26T12:35:49.117Z,7.05
2022-11-26T12:38:39.221Z,6.47
2022-11-26T12:41:10.842Z,7.30
2022-11-26T12:43:58.477Z,7.10
2022-11-26T12:47:02.149Z,6.97
2022-11-26T12:50:00.250Z,7.20
2022-11-26T12:52:52.864Z,7.72
2022-11-26T12:55:22.712Z,7.57
2022-11-26T12:58:01.141Z,7.60
2022-11-26T13:00:36.439Z,7.72
2022-11-26T13:03:05.935Z,7.30
2022-11-26T13:05:56.582Z,7.00
2022-11-26T13:08:41.053Z,7.88
2022-11-26T13:11:24.107Z,8.00
2022-11-26T13:14:02.034Z,7.93
2022-11-26T13:16:41.239Z,7.82
2022-11-26T13:19:34.205Z,7.22
2022-11-26T13:22:29.199Z,7.40
2022-11-26T13:25:29.896Z,7.60
2022-11-26T13:28:19.295Z,7.22
2022-11-26T13:31:07.437Z,7.97
2022-11-26T13:34:05.512Z,8.00
2022-11-26T13:36:53.116Z,7.85
2022-11-26T13:39:28.525Z,9.10
2022-11-26T13:42:27.292Z,7.65
2022-11-26T13:45:12.888Z,8.75
2022-11-26T13:47:48.381Z,8.45
2022-11-26T13:50:22.484Z,8.50
2022-11-26T13:52:57.764Z,7.53
2022-11-26T13:55:34.422Z,8.15
2022-11-26T13:58:05.152Z,8.30
2022-11-26T14:00:34.715Z,8.00
2022-11-26T14:03:02.794Z,8.40
2022-11-26T14:05:51.218Z,7.45
2022-11-26T14:08:43.242Z,8.45
2022-11-26T14:11:10.728Z,8.15
2022-11-26T14:13:37.691Z,8.25
2022-11-26T14:16:10.583Z,8.50
2022-11-26T14:18:49.444Z,7.88
2022-11-26T14:21:23.032Z,9.35
2022-11-26T14:23:52.644Z,9.55
2022-11-26T14:26:25.874Z,8.52
2022-11-26T14:29:21.862Z,7.47
2022-11-26T14:31:52.899Z,8.40
2022-11-26T14:34:39.406Z,8.40
2022-11-26T14:37:13.880Z,9.40
2022-11-26T14:39:40.564Z,8.80
2022-11-26T14:42:15.401Z,8.10
2022-11-26T14:44:42.141Z,9.25
2022-11-26T14:47:17.077Z,8.93
2022-11-26T14:49:57.908Z,8.15
2022-11-26T14:52:43.645Z,8.45
2022-11-26T14:55:23.881Z,7.97
2022-11-26T14:57:58.540Z,9.32
2022-11-26T15:00:25.178Z,8.43
2022-11-26T15:02:52.927Z,10.52
2022-11-26T15:05:25.737Z,8.32
2022-11-26T15:08:04.761Z,8.48
2022-11-26T15:11:00.792Z,8.18
2022-11-26T15:13:36.293Z,9.02
2022-11-26T15:16:23.797Z,8.15
2022-11-26T15:18:53.963Z,8.73
2022-11-26T15:21:24.292Z,9.30
2022-11-26T15:23:52.430Z,8.70
2022-11-26T15:26:22.695Z,8.85
2022-11-26T15:28:49.751Z,9.32
2022-11-26T15:31:16.758Z,8.02
2022-11-26T15:33:44.452Z,8.55
2022-11-26T15:36:17.208Z,7.63
2022-11-26T15:39:03.057Z,9.07
2022-11-26T15:41:30.445Z,13.65
2022-11-26T15:43:59.166Z,13.40
2022-11-26T15:46:31.605Z,8.85
2022-11-26T15:49:07.372Z,8.85
2022-11-26T15:51:40.956Z,9.85
2022-11-26T15:54:43.365Z,10.18
2022-11-26T15:57:26.120Z,10.23
2022-11-26T15:59:57.267Z,10.23
2022-11-26T16:02:26.941Z,9.35
2022-11-26T16:04:59.250Z,9.00
2022-11-26T16:07:33.195Z,8.70
2022-11-26T16:10:16.748Z,9.23
2022-11-26T16:12:44.972Z,9.57
2022-11-26T16:15:17.895Z,10.27
2022-11-26T16:17:46.029Z,10.60
2022-11-26T16:20:30.940Z,10.15
2022-11-26T16:23:00.967Z,10.57
2022-11-26T16:25:30.459Z,10.23
2022-11-26T16:28:12.113Z,9.13
2022-11-26T16:30:41.037Z,8.05
2022-11-26T16:33:08.014Z,7.95
2022-11-26T16:35:50.665Z,9.77
2022-11-26T16:38:23.034Z,7.80
2022-11-26T16:40:50.497Z,8.20
2022-11-26T16:43:17.405Z,8.65
2022-11-26T16:45:44.492Z,9.00
2022-11-26T16:48:24.788Z,8.93
2022-11-26T16:50:52.931Z,9.35
2022-11-26T16:53:19.584Z,8.60
2022-11-26T16:55:46.877Z,8.50
2022-11-26T16:58:28.174Z,8.77
2022-11-26T17:00:56.291Z,9.70
2022-11-26T17:03:23.988Z,7.88
2022-11-26T17:05:54.290Z,8.30
2022-11-26T17:08:21.044Z,8.65
2022-11-26T17:10:47.907Z,8.77
2022-11-26T17:13:15.439Z,8.00
2022-11-26T17:15:43.203Z,7.82
2022-11-26T17:18:27.894Z,7.65
2022-11-26T17:20:54.653Z,7.72
2022-11-26T17:23:21.555Z,8.25
2022-11-26T17:25:53.178Z,8.07
2022-11-26T17:28:21.180Z,8.15
2022-11-26T17:30:47.970Z,11.40
2022-11-26T17:33:14.758Z,7.97
2022-11-26T17:35:41.557Z,8.68
2022-11-26T17:38:18.526Z,8.43
2022-11-26T17:40:46.227Z,9.40
2022-11-26T17:43:13.660Z,10.10
2022-11-26T17:45:41.384Z,10.10
2022-11-26T17:48:13.141Z,10.25
2022-11-26T17:50:40.268Z,11.55
2022-11-26T17:53:06.980Z,10.50
2022-11-26T17:55:33.709Z,10.00
2022-11-26T17:58:00.379Z,11.52
2022-11-26T18:00:29.004Z,10.57
2022-11-26T18:02:56.575Z,9.40
2022-11-26T18:05:23.656Z,10.27
2022-11-26T18:07:50.614Z,11.15
2022-11-26T18:10:19.755Z,10.60
2022-11-26T18:12:46.755Z,10.43
2022-11-26T18:15:22.279Z,10.32
2022-11-26T18:17:51.277Z,8.75
2022-11-26T18:20:21.409Z,10.65
2022-11-26T18:22:52.630Z,12.10
2022-11-26T18:25:19.344Z,9.65
2022-11-26T18:27:46.236Z,10.38
2022-11-26T18:30:13.656Z,12.25
2022-11-26T18:32:40.623Z,11.60
2022-11-26T18:35:07.891Z,10.98
2022-11-26T18:37:35.741Z,10.32
2022-11-26T18:40:03.109Z,10.20
2022-11-26T18:42:37.026Z,11.02
2022-11-26T18:45:05.855Z,10.40
2022-11-26T18:47:33.176Z,11.52
2022-11-26T18:49:59.867Z,10.27
2022-11-26T18:52:26.841Z,10.02
2022-11-26T18:54:53.488Z,10.20
2022-11-26T18:57:20.137Z,10.80
2022-11-26T18:59:46.791Z,10.27
2022-11-26T19:02:13.791Z,11.00
2022-11-26T19:04:40.671Z,10.40
2022-11-26T19:07:08.523Z,9.20
2022-11-26T19:09:35.161Z,10.50
2022-11-26T19:12:01.875Z,9.23
2022-11-26T19:14:28.524Z,11.90
2022-11-26T19:16:55.217Z,11.30
2022-11-26T19:19:22.566Z,9.95
2022-11-26T19:21:50.266Z,10.73
2022-11-26T19:24:16.985Z,10.90
2022-11-26T19:26:43.778Z,11.80
2022-11-26T19:29:12.593Z,12.18
2022-11-26T19:31:39.895Z,12.32
2022-11-26T19:34:11.593Z,12.43
2022-11-26T19:36:38.425Z,11.60
2022-11-26T19:39:06.460Z,14.43
2022-11-26T19:41:33.470Z,13.32
2022-11-26T19:44:00.773Z,13.00
2022-11-26T19:46:28.049Z,11.30
2022-11-26T19:48:55.762Z,12.77
2022-11-26T19:51:24.003Z,12.90
2022-11-26T19:53:53.220Z,12.25
2022-11-26T19:56:30.701Z,12.77
2022-11-26T19:58:58.581Z,13.50
2022-11-26T20:01:30.139Z,14.00
2022-11-26T20:04:05.313Z,14.07
2022-11-26T20:06:33.676Z,13.70
2022-11-26T20:09:02.756Z,12.88
2022-11-26T20:11:29.536Z,13.05
2022-11-26T20:13:57.421Z,13.30
2022-11-26T20:16:28.444Z,12.90
2022-11-26T20:18:56.001Z,15.50
2022-11-26T20:21:27.008Z,15.55
2022-11-26T20:23:55.241Z,16.05
2022-11-26T20:26:33.693Z,16.15
2022-11-26T20:29:03.807Z,17.55
2022-11-26T20:31:30.680Z,17.50
2022-11-26T20:33:57.641Z,15.43
2022-11-26T20:36:24.279Z,15.75
2022-11-26T20:38:55.487Z,14.80
2022-11-26T20:41:23.313Z,15.48
2022-11-26T20:43:54.958Z,14.82
2022-11-26T20:46:25.473Z,16.27
2022-11-26T20:48:52.873Z,14.73
2022-11-26T20:51:21.696Z,15.30
2022-11-26T20:53:52.331Z,15.60
2022-11-26T20:56:20.612Z,14.73
2022-11-26T20:58:47.689Z,15.75
2022-11-26T21:01:17.057Z,14.45
2022-11-26T21:03:44.209Z,15.80
2022-11-26T21:06:13.731Z,16.05
2022-11-26T21:08:41.259Z,14.48
2022-11-26T21:11:08.756Z,13.05
2022-11-26T21:13:36.663Z,11.88
2022-11-26T21:16:05.033Z,13.30
2022-11-26T21:18:32.136Z,12.35
2022-11-26T21:20:59.936Z,12.85
2022-11-26T21:23:27.403Z,12.88
2022-11-26T21:25:54.625Z,11.73
2022-11-26T21:28:21.296Z,13.32
2022-11-26T21:30:48.031Z,13.00
2022-11-26T21:33:14.824Z,12.57
2022-11-26T21:35:41.487Z,11.80
2022-11-26T21:38:08.196Z,11.48
2022-11-26T21:40:34.936Z,13.35
2022-11-26T21:43:01.555Z,13.65
2022-11-26T21:45:29.152Z,12.35
2022-11-26T21:47:55.797Z,15.05
2022-11-26T21:50:24.248Z,14.02
2022-11-26T21:52:50.921Z,16.33
2022-11-26T21:55:17.584Z,11.93
2022-11-26T21:57:44.213Z,13.70
2022-11-26T22:00:11.325Z,12.38
2022-11-26T22:02:38.098Z,12.25
2022-11-26T22:05:05.104Z,13.60
2022-11-26T22:07:32.112Z,12.90
2022-11-26T22:09:59.183Z,13.68
2022-11-26T22:12:25.907Z,11.20
2022-11-26T22:14:52.543Z,11.68
2022-11-26T22:17:19.165Z,14.48
2022-11-26T22:19:45.985Z,12.38
2022-11-26T22:22:12.605Z,13.93
2022-11-26T22:24:39.279Z,13.32
2022-11-26T22:27:05.960Z,14.70
2022-11-26T22:29:32.588Z,14.98
2022-11-26T22:31:59.214Z,14.50
2022-11-26T22:34:27.724Z,14.50
2022-11-26T22:36:54.516Z,14.98
2022-11-26T22:39:21.123Z,14.32
2022-11-26T22:41:48.528Z,14.80
2022-11-26T22:44:15.841Z,14.35
2022-11-26T22:46:43.005Z,14.95
2022-11-26T22:49:15.529Z,14.40
2022-11-26T22:51:42.316Z,12.85
2022-11-26T22:54:12.082Z,13.75
2022-11-26T22:56:39.074Z,15.10
2022-11-26T22:59:07.495Z,15.40
2022-11-26T23:01:35.665Z,14.82
2022-11-26T23:04:05.406Z,14.05
2022-11-26T23:06:34.219Z,14.13
2022-11-26T23:09:03.196Z,14.55
2022-11-26T23:11:33.273Z,15.48
2022-11-26T23:14:02.036Z,14.98
2022-11-26T23:16:28.945Z,13.82
2022-11-26T23:18:56.988Z,13.25
2022-11-26T23:21:31.935Z,13.75
2022-11-26T23:23:58.997Z,13.13
2022-11-26T23:26:30.749Z,13.88
2022-11-26T23:28:59.015Z,14.32
2022-11-26T23:31:32.523Z,13.65
2022-11-26T23:34:00.161Z,13.50
2022-11-26T23:36:28.678Z,15.20
2022-11-26T23:38:55.911Z,13.32
2022-11-26T23:41:23.020Z,14.20
2022-11-26T23:43:49.868Z,17.13
2022-11-26T23:46:25.154Z,11.63
2022-11-26T23:48:52.256Z,14.35
2022-11-26T23:51:22.003Z,11.82
2022-11-26T23:53:50.511Z,12.38
2022-11-26T23:56:20.332Z,14.05
2022-11-26T23:58:51.765Z,14.15
